sensor_id;sensor_type;location;lat;lon;timestamp;temperature;humidity
20147;DHT22;10234;50.856;15.716;2023-02-26T00:02:28;-1.50;99.90
20147;DHT22;10234;50.856;15.716;2023-02-26T00:04:55;-1.50;99.90
20147;DHT22;10234;50.856;15.716;2023-02-26T00:07:21;-1.40;99.90
20147;DHT22;10234;50.856;15.716;2023-02-26T00:09:53;-1.50;99.90
20147;DHT22;10234;50.856;15.716;2023-02-26T00:12:20;-1.70;99.90
20147;DHT22;10234;50.856;15.716;2023-02-26T00:14:48;-1.90;99.90
20147;DHT22;10234;50.856;15.716;2023-02-26T00:17:35;-1.70;99.90
20147;DHT22;10234;50.856;15.716;2023-02-26T00:20:07;-1.60;99.90
20147;DHT22;10234;50.856;15.716;2023-02-26T00:22:35;-1.50;99.90
20147;DHT22;10234;50.856;15.716;2023-02-26T00:25:03;-1.60;99.90
20147;DHT22;10234;50.856;15.716;2023-02-26T00:27:30;-1.60;99.90
20147;DHT22;10234;50.856;15.716;2023-02-26T00:29:58;-1.60;99.90
20147;DHT22;10234;50.856;15.716;2023-02-26T00:32:25;-1.60;99.90
20147;DHT22;10234;50.856;15.716;2023-02-26T00:34:52;-1.70;99.90
20147;DHT22;10234;50.856;15.716;2023-02-26T00:37:29;-1.70;99.90
20147;DHT22;10234;50.856;15.716;2023-02-26T00:40:07;-1.60;99.90
20147;DHT22;10234;50.856;15.716;2023-02-26T00:42:36;-1.70;99.90
20147;DHT22;10234;50.856;15.716;2023-02-26T00:45:04;-1.70;99.90
20147;DHT22;10234;50.856;15.716;2023-02-26T00:47:37;-1.60;99.90
20147;DHT22;10234;50.856;15.716;2023-02-26T00:50:12;-1.70;99.90
20147;DHT22;10234;50.856;15.716;2023-02-26T00:52:48;-1.70;99.90
20147;DHT22;10234;50.856;15.716;2023-02-26T00:55:19;-1.20;99.90
20147;DHT22;10234;50.856;15.716;2023-02-26T00:57:46;-1.80;99.90
20147;DHT22;10234;50.856;15.716;2023-02-26T01:00:14;-1.70;99.90
20147;DHT22;10234;50.856;15.716;2023-02-26T01:02:42;-1.70;99.90
20147;DHT22;10234;50.856;15.716;2023-02-26T01:05:10;-2.20;99.90
20147;DHT22;10234;50.856;15.716;2023-02-26T01:07:41;-1.70;99.90
20147;DHT22;10234;50.856;15.716;2023-02-26T01:10:10;-1.70;99.90
20147;DHT22;10234;50.856;15.716;2023-02-26T01:12:39;-1.80;99.90
20147;DHT22;10234;50.856;15.716;2023-02-26T01:15:08;-2.00;99.90
20147;DHT22;10234;50.856;15.716;2023-02-26T01:17:39;-2.00;99.90
20147;DHT22;10234;50.856;15.716;2023-02-26T01:20:10;-2.00;99.90
20147;DHT22;10234;50.856;15.716;2023-02-26T01:22:45;-2.00;99.90
20147;DHT22;10234;50.856;15.716;2023-02-26T01:25:15;-1.90;99.90
20147;DHT22;10234;50.856;15.716;2023-02-26T01:27:45;-2.00;99.90
20147;DHT22;10234;50.856;15.716;2023-02-26T01:30:12;-2.00;99.90
20147;DHT22;10234;50.856;15.716;2023-02-26T01:32:43;-2.00;99.90
20147;DHT22;10234;50.856;15.716;2023-02-26T01:35:20;-2.00;99.90
20147;DHT22;10234;50.856;15.716;2023-02-26T01:37:54;-1.70;99.90
20147;DHT22;10234;50.856;15.716;2023-02-26T01:40:50;-2.00;99.90
20147;DHT22;10234;50.856;15.716;2023-02-26T01:43:27;-2.00;99.90
20147;DHT22;10234;50.856;15.716;2023-02-26T01:46:01;-2.00;99.90
20147;DHT22;10234;50.856;15.716;2023-02-26T01:48:36;-2.00;99.90
20147;DHT22;10234;50.856;15.716;2023-02-26T01:51:03;-1.50;99.90
20147;DHT22;10234;50.856;15.716;2023-02-26T01:53:30;-1.90;99.90
20147;DHT22;10234;50.856;15.716;2023-02-26T01:56:00;-1.90;99.90
20147;DHT22;10234;50.856;15.716;2023-02-26T01:58:32;-1.90;99.90
20147;DHT22;10234;50.856;15.716;2023-02-26T02:01:00;-1.90;99.90
20147;DHT22;10234;50.856;15.716;2023-02-26T02:03:29;-1.90;99.90
20147;DHT22;10234;50.856;15.716;2023-02-26T02:05:59;-1.90;99.90
20147;DHT22;10234;50.856;15.716;2023-02-26T02:08:29;-1.90;99.90
20147;DHT22;10234;50.856;15.716;2023-02-26T02:10:58;-1.80;99.90
20147;DHT22;10234;50.856;15.716;2023-02-26T02:13:36;-1.70;99.90
20147;DHT22;10234;50.856;15.716;2023-02-26T02:16:16;-1.80;99.90
20147;DHT22;10234;50.856;15.716;2023-02-26T02:18:49;-1.80;99.90
20147;DHT22;10234;50.856;15.716;2023-02-26T02:21:40;-1.80;99.90
20147;DHT22;10234;50.856;15.716;2023-02-26T02:24:11;-1.80;99.90
20147;DHT22;10234;50.856;15.716;2023-02-26T02:26:56;0.90;99.90
20147;DHT22;10234;50.856;15.716;2023-02-26T02:29:46;-1.90;99.90
20147;DHT22;10234;50.856;15.716;2023-02-26T02:32:20;-1.90;99.90
20147;DHT22;10234;50.856;15.716;2023-02-26T02:34:52;-1.90;99.90
20147;DHT22;10234;50.856;15.716;2023-02-26T02:37:23;-2.00;99.90
20147;DHT22;10234;50.856;15.716;2023-02-26T02:39:54;-1.20;99.90
20147;DHT22;10234;50.856;15.716;2023-02-26T02:42:27;-1.90;99.90
20147;DHT22;10234;50.856;15.716;2023-02-26T02:44:57;-2.00;99.90
20147;DHT22;10234;50.856;15.716;2023-02-26T02:47:28;-1.20;99.90
20147;DHT22;10234;50.856;15.716;2023-02-26T02:50:00;-2.40;99.90
20147;DHT22;10234;50.856;15.716;2023-02-26T02:52:32;-2.00;99.90
20147;DHT22;10234;50.856;15.716;2023-02-26T02:55:04;1.00;99.90
20147;DHT22;10234;50.856;15.716;2023-02-26T02:57:34;-2.00;99.90
20147;DHT22;10234;50.856;15.716;2023-02-26T03:00:07;-2.00;99.90
20147;DHT22;10234;50.856;15.716;2023-02-26T03:02:39;-2.00;99.90
20147;DHT22;10234;50.856;15.716;2023-02-26T03:05:09;-2.00;99.90
20147;DHT22;10234;50.856;15.716;2023-02-26T03:07:42;-1.90;99.90
20147;DHT22;10234;50.856;15.716;2023-02-26T03:10:10;-2.00;99.90
20147;DHT22;10234;50.856;15.716;2023-02-26T03:12:38;-2.00;99.90
20147;DHT22;10234;50.856;15.716;2023-02-26T03:15:06;-2.40;99.90
20147;DHT22;10234;50.856;15.716;2023-02-26T03:17:42;-2.00;99.90
20147;DHT22;10234;50.856;15.716;2023-02-26T03:20:16;-2.40;99.90
20147;DHT22;10234;50.856;15.716;2023-02-26T03:22:51;-1.90;99.90
20147;DHT22;10234;50.856;15.716;2023-02-26T03:25:23;-2.00;99.90
20147;DHT22;10234;50.856;15.716;2023-02-26T03:27:56;-2.00;99.90
20147;DHT22;10234;50.856;15.716;2023-02-26T03:30:32;-2.00;99.90
20147;DHT22;10234;50.856;15.716;2023-02-26T03:33:05;-2.00;99.90
20147;DHT22;10234;50.856;15.716;2023-02-26T03:35:38;-2.00;99.90
20147;DHT22;10234;50.856;15.716;2023-02-26T03:38:12;-2.10;99.90
20147;DHT22;10234;50.856;15.716;2023-02-26T03:40:43;-2.10;99.90
20147;DHT22;10234;50.856;15.716;2023-02-26T03:43:17;-2.10;99.90
20147;DHT22;10234;50.856;15.716;2023-02-26T03:45:47;-2.10;99.90
20147;DHT22;10234;50.856;15.716;2023-02-26T03:48:18;-2.10;99.90
20147;DHT22;10234;50.856;15.716;2023-02-26T03:50:49;-2.10;99.90
20147;DHT22;10234;50.856;15.716;2023-02-26T03:53:21;-2.10;99.90
20147;DHT22;10234;50.856;15.716;2023-02-26T03:55:52;-2.10;99.90
20147;DHT22;10234;50.856;15.716;2023-02-26T03:58:21;-2.10;99.90
20147;DHT22;10234;50.856;15.716;2023-02-26T04:00:53;-1.20;99.90
20147;DHT22;10234;50.856;15.716;2023-02-26T04:03:27;-2.20;99.90
20147;DHT22;10234;50.856;15.716;2023-02-26T04:05:55;-2.10;99.90
20147;DHT22;10234;50.856;15.716;2023-02-26T04:08:22;-2.10;99.90
20147;DHT22;10234;50.856;15.716;2023-02-26T04:10:53;-2.10;99.90
20147;DHT22;10234;50.856;15.716;2023-02-26T04:13:21;-2.20;99.90
20147;DHT22;10234;50.856;15.716;2023-02-26T04:18:15;-2.10;99.90
20147;DHT22;10234;50.856;15.716;2023-02-26T04:20:43;-2.10;99.90
20147;DHT22;10234;50.856;15.716;2023-02-26T04:28:04;-2.10;99.90
20147;DHT22;10234;50.856;15.716;2023-02-26T04:30:31;-2.10;99.90
20147;DHT22;10234;50.856;15.716;2023-02-26T04:32:58;-2.10;99.90
20147;DHT22;10234;50.856;15.716;2023-02-26T04:35:25;-2.10;99.90
20147;DHT22;10234;50.856;15.716;2023-02-26T04:37:53;-1.20;99.90
20147;DHT22;10234;50.856;15.716;2023-02-26T04:40:19;-2.10;99.90
20147;DHT22;10234;50.856;15.716;2023-02-26T04:45:15;-2.00;99.90
20147;DHT22;10234;50.856;15.716;2023-02-26T04:47:42;-2.00;99.90
20147;DHT22;10234;50.856;15.716;2023-02-26T04:50:09;-2.10;99.90
20147;DHT22;10234;50.856;15.716;2023-02-26T04:55:06;-1.20;99.90
20147;DHT22;10234;50.856;15.716;2023-02-26T04:57:33;-2.20;99.90
20147;DHT22;10234;50.856;15.716;2023-02-26T05:02:31;-2.20;99.90
20147;DHT22;10234;50.856;15.716;2023-02-26T05:04:57;-2.20;99.90
20147;DHT22;10234;50.856;15.716;2023-02-26T05:07:24;-2.10;99.90
20147;DHT22;10234;50.856;15.716;2023-02-26T05:12:19;-2.10;99.90
20147;DHT22;10234;50.856;15.716;2023-02-26T05:14:46;-2.10;99.90
20147;DHT22;10234;50.856;15.716;2023-02-26T05:17:13;-2.20;99.90
20147;DHT22;10234;50.856;15.716;2023-02-26T05:22:07;-2.20;99.90
20147;DHT22;10234;50.856;15.716;2023-02-26T05:24:34;-2.20;99.90
20147;DHT22;10234;50.856;15.716;2023-02-26T05:27:01;-2.20;99.90
20147;DHT22;10234;50.856;15.716;2023-02-26T05:29:29;-2.20;99.90
20147;DHT22;10234;50.856;15.716;2023-02-26T05:31:56;-1.30;99.90
20147;DHT22;10234;50.856;15.716;2023-02-26T05:34:23;-2.20;99.90
20147;DHT22;10234;50.856;15.716;2023-02-26T05:36:50;-2.40;99.90
20147;DHT22;10234;50.856;15.716;2023-02-26T05:39:16;-2.40;99.90
20147;DHT22;10234;50.856;15.716;2023-02-26T05:41:43;-2.30;99.90
20147;DHT22;10234;50.856;15.716;2023-02-26T05:46:40;-2.20;99.90
20147;DHT22;10234;50.856;15.716;2023-02-26T05:49:06;-2.20;99.90
20147;DHT22;10234;50.856;15.716;2023-02-26T05:51:33;-2.30;99.90
20147;DHT22;10234;50.856;15.716;2023-02-26T06:01:22;-2.30;99.90
20147;DHT22;10234;50.856;15.716;2023-02-26T06:03:50;-2.70;99.90
20147;DHT22;10234;50.856;15.716;2023-02-26T06:08:44;-2.20;99.90
20147;DHT22;10234;50.856;15.716;2023-02-26T06:13:38;-2.20;99.90
20147;DHT22;10234;50.856;15.716;2023-02-26T06:16:05;-2.10;99.90
20147;DHT22;10234;50.856;15.716;2023-02-26T06:18:32;-2.10;99.90
20147;DHT22;10234;50.856;15.716;2023-02-26T06:21:01;-2.10;99.90
20147;DHT22;10234;50.856;15.716;2023-02-26T06:25:55;-2.10;99.90
20147;DHT22;10234;50.856;15.716;2023-02-26T06:28:24;-2.20;99.90
20147;DHT22;10234;50.856;15.716;2023-02-26T06:30:51;-2.00;99.90
20147;DHT22;10234;50.856;15.716;2023-02-26T06:35:45;-2.00;99.90
20147;DHT22;10234;50.856;15.716;2023-02-26T06:38:14;-2.00;99.90
20147;DHT22;10234;50.856;15.716;2023-02-26T06:45:35;-2.00;99.90
20147;DHT22;10234;50.856;15.716;2023-02-26T06:50:29;-1.90;99.90
20147;DHT22;10234;50.856;15.716;2023-02-26T06:55:25;-1.80;99.90
20147;DHT22;10234;50.856;15.716;2023-02-26T06:57:52;-1.80;99.90
20147;DHT22;10234;50.856;15.716;2023-02-26T07:00:19;-1.80;99.90
20147;DHT22;10234;50.856;15.716;2023-02-26T07:05:14;-1.50;99.90
20147;DHT22;10234;50.856;15.716;2023-02-26T07:10:10;-1.50;99.90
20147;DHT22;10234;50.856;15.716;2023-02-26T07:12:38;-1.50;99.90
20147;DHT22;10234;50.856;15.716;2023-02-26T07:15:06;-1.80;99.90
20147;DHT22;10234;50.856;15.716;2023-02-26T07:17:33;-1.60;99.90
20147;DHT22;10234;50.856;15.716;2023-02-26T07:20:00;-1.60;99.90
20147;DHT22;10234;50.856;15.716;2023-02-26T07:24:58;-1.40;99.90
20147;DHT22;10234;50.856;15.716;2023-02-26T07:27:25;-1.40;99.90
20147;DHT22;10234;50.856;15.716;2023-02-26T07:29:55;-1.40;99.90
20147;DHT22;10234;50.856;15.716;2023-02-26T07:32:22;-1.40;99.90
20147;DHT22;10234;50.856;15.716;2023-02-26T07:34:49;-1.30;99.90
20147;DHT22;10234;50.856;15.716;2023-02-26T07:39:43;-1.40;99.90
20147;DHT22;10234;50.856;15.716;2023-02-26T07:44:37;-0.30;99.90
20147;DHT22;10234;50.856;15.716;2023-02-26T07:47:05;-1.30;99.90
20147;DHT22;10234;50.856;15.716;2023-02-26T07:54:27;-1.40;99.90
20147;DHT22;10234;50.856;15.716;2023-02-26T08:01:53;-1.30;99.90
20147;DHT22;10234;50.856;15.716;2023-02-26T08:04:22;-2.60;99.90
20147;DHT22;10234;50.856;15.716;2023-02-26T08:06:49;-1.00;99.90
20147;DHT22;10234;50.856;15.716;2023-02-26T08:09:19;-1.10;99.90
20147;DHT22;10234;50.856;15.716;2023-02-26T08:11:45;-1.20;99.90
20147;DHT22;10234;50.856;15.716;2023-02-26T08:14:13;-1.00;99.90
20147;DHT22;10234;50.856;15.716;2023-02-26T08:16:40;-0.90;99.90
20147;DHT22;10234;50.856;15.716;2023-02-26T08:24:03;-0.60;99.90
20147;DHT22;10234;50.856;15.716;2023-02-26T08:26:29;-0.50;99.90
20147;DHT22;10234;50.856;15.716;2023-02-26T08:33:52;0.40;99.90
20147;DHT22;10234;50.856;15.716;2023-02-26T08:38:48;0.20;99.90
20147;DHT22;10234;50.856;15.716;2023-02-26T08:43:43;0.00;99.90
20147;DHT22;10234;50.856;15.716;2023-02-26T08:46:10;0.20;99.90
20147;DHT22;10234;50.856;15.716;2023-02-26T08:55:59;-0.10;99.90
20147;DHT22;10234;50.856;15.716;2023-02-26T08:58:26;-0.10;99.90
20147;DHT22;10234;50.856;15.716;2023-02-26T09:00:53;0.10;99.90
20147;DHT22;10234;50.856;15.716;2023-02-26T09:05:47;0.20;99.90
20147;DHT22;10234;50.856;15.716;2023-02-26T09:13:09;0.40;99.90
20147;DHT22;10234;50.856;15.716;2023-02-26T09:15:36;0.40;99.90
20147;DHT22;10234;50.856;15.716;2023-02-26T09:18:03;0.50;99.90
20147;DHT22;10234;50.856;15.716;2023-02-26T09:20:31;0.60;99.90
20147;DHT22;10234;50.856;15.716;2023-02-26T09:25:25;0.50;99.90
20147;DHT22;10234;50.856;15.716;2023-02-26T09:30:20;0.90;99.90
20147;DHT22;10234;50.856;15.716;2023-02-26T09:32:47;0.40;99.90
20147;DHT22;10234;50.856;15.716;2023-02-26T09:35:14;0.60;99.90
20147;DHT22;10234;50.856;15.716;2023-02-26T09:40:19;-0.10;99.90
20147;DHT22;10234;50.856;15.716;2023-02-26T09:42:57;0.60;99.90
20147;DHT22;10234;50.856;15.716;2023-02-26T09:45:30;0.50;99.90
20147;DHT22;10234;50.856;15.716;2023-02-26T09:47:59;0.60;99.90
20147;DHT22;10234;50.856;15.716;2023-02-26T09:50:37;0.60;99.90
20147;DHT22;10234;50.856;15.716;2023-02-26T09:53:10;1.20;99.90
20147;DHT22;10234;50.856;15.716;2023-02-26T09:55:40;1.30;99.90
20147;DHT22;10234;50.856;15.716;2023-02-26T09:58:15;1.50;99.90
20147;DHT22;10234;50.856;15.716;2023-02-26T10:00:52;1.60;99.90
20147;DHT22;10234;50.856;15.716;2023-02-26T10:03:26;1.50;99.90
20147;DHT22;10234;50.856;15.716;2023-02-26T10:06:15;1.20;99.90
20147;DHT22;10234;50.856;15.716;2023-02-26T10:08:49;0.50;99.90
20147;DHT22;10234;50.856;15.716;2023-02-26T10:11:22;1.50;99.90
20147;DHT22;10234;50.856;15.716;2023-02-26T10:13:56;0.90;99.90
20147;DHT22;10234;50.856;15.716;2023-02-26T10:16:27;0.80;99.90
20147;DHT22;10234;50.856;15.716;2023-02-26T10:19:07;0.70;99.90
20147;DHT22;10234;50.856;15.716;2023-02-26T10:21:40;0.60;99.90
20147;DHT22;10234;50.856;15.716;2023-02-26T10:24:12;0.60;99.90
20147;DHT22;10234;50.856;15.716;2023-02-26T10:26:45;0.50;99.90
20147;DHT22;10234;50.856;15.716;2023-02-26T10:29:20;0.60;99.90
20147;DHT22;10234;50.856;15.716;2023-02-26T10:32:00;0.40;99.90
20147;DHT22;10234;50.856;15.716;2023-02-26T10:34:33;0.70;99.90
20147;DHT22;10234;50.856;15.716;2023-02-26T10:37:07;3.70;99.90
20147;DHT22;10234;50.856;15.716;2023-02-26T10:39:44;2.20;99.90
20147;DHT22;10234;50.856;15.716;2023-02-26T10:42:17;1.50;99.90
20147;DHT22;10234;50.856;15.716;2023-02-26T10:44:51;1.40;99.90
20147;DHT22;10234;50.856;15.716;2023-02-26T10:47:30;1.30;99.90
20147;DHT22;10234;50.856;15.716;2023-02-26T10:50:07;0.90;99.90
20147;DHT22;10234;50.856;15.716;2023-02-26T10:55:25;0.90;99.90
20147;DHT22;10234;50.856;15.716;2023-02-26T10:58:02;0.80;99.90
20147;DHT22;10234;50.856;15.716;2023-02-26T11:02:58;0.80;99.90
20147;DHT22;10234;50.856;15.716;2023-02-26T11:05:28;3.00;99.90
20147;DHT22;10234;50.856;15.716;2023-02-26T11:07:57;1.00;99.90
20147;DHT22;10234;50.856;15.716;2023-02-26T11:10:35;1.20;99.90
20147;DHT22;10234;50.856;15.716;2023-02-26T11:18:00;1.00;99.90
20147;DHT22;10234;50.856;15.716;2023-02-26T11:20:34;1.10;99.90
20147;DHT22;10234;50.856;15.716;2023-02-26T11:23:05;1.20;99.90
20147;DHT22;10234;50.856;15.716;2023-02-26T11:40:34;2.50;99.90
20147;DHT22;10234;50.856;15.716;2023-02-26T11:55:34;1.90;99.90
20147;DHT22;10234;50.856;15.716;2023-02-26T11:58:14;1.90;99.90
20147;DHT22;10234;50.856;15.716;2023-02-26T12:05:44;1.90;99.90
20147;DHT22;10234;50.856;15.716;2023-02-26T12:13:18;1.30;99.90
20147;DHT22;10234;50.856;15.716;2023-02-26T12:15:53;1.20;99.90
20147;DHT22;10234;50.856;15.716;2023-02-26T12:18:36;1.00;99.90
20147;DHT22;10234;50.856;15.716;2023-02-26T12:29:16;0.80;99.90
20147;DHT22;10234;50.856;15.716;2023-02-26T12:35:09;1.60;99.90
20147;DHT22;10234;50.856;15.716;2023-02-26T12:37:51;2.10;99.90
20147;DHT22;10234;50.856;15.716;2023-02-26T12:40:46;2.40;99.90
20147;DHT22;10234;50.856;15.716;2023-02-26T12:51:14;2.80;99.90
20147;DHT22;10234;50.856;15.716;2023-02-26T12:53:56;2.80;99.90
20147;DHT22;10234;50.856;15.716;2023-02-26T12:56:46;2.60;99.90
20147;DHT22;10234;50.856;15.716;2023-02-26T12:59:41;2.40;99.90
20147;DHT22;10234;50.856;15.716;2023-02-26T13:05:22;1.90;99.90
20147;DHT22;10234;50.856;15.716;2023-02-26T13:07:59;1.90;99.90
20147;DHT22;10234;50.856;15.716;2023-02-26T13:10:42;2.40;99.90
20147;DHT22;10234;50.856;15.716;2023-02-26T13:13:28;2.80;99.90
20147;DHT22;10234;50.856;15.716;2023-02-26T13:16:07;3.10;99.90
20147;DHT22;10234;50.856;15.716;2023-02-26T13:18:45;3.00;99.90
20147;DHT22;10234;50.856;15.716;2023-02-26T13:23:48;2.80;99.90
20147;DHT22;10234;50.856;15.716;2023-02-26T13:28:49;3.30;99.90
20147;DHT22;10234;50.856;15.716;2023-02-26T13:31:20;3.20;99.90
20147;DHT22;10234;50.856;15.716;2023-02-26T13:33:49;3.10;99.90
20147;DHT22;10234;50.856;15.716;2023-02-26T13:36:19;2.80;99.90
20147;DHT22;10234;50.856;15.716;2023-02-26T13:38:56;2.80;99.90
20147;DHT22;10234;50.856;15.716;2023-02-26T13:41:35;2.60;99.90
20147;DHT22;10234;50.856;15.716;2023-02-26T13:44:20;3.30;99.90
20147;DHT22;10234;50.856;15.716;2023-02-26T13:47:05;2.60;99.90
20147;DHT22;10234;50.856;15.716;2023-02-26T13:49:45;2.80;99.90
20147;DHT22;10234;50.856;15.716;2023-02-26T13:52:24;2.90;99.90
20147;DHT22;10234;50.856;15.716;2023-02-26T13:57:34;2.50;99.90
20147;DHT22;10234;50.856;15.716;2023-02-26T14:00:08;2.10;99.90
20147;DHT22;10234;50.856;15.716;2023-02-26T14:02:46;1.70;99.90
20147;DHT22;10234;50.856;15.716;2023-02-26T14:05:33;1.40;99.90
20147;DHT22;10234;50.856;15.716;2023-02-26T14:08:17;1.40;99.90
20147;DHT22;10234;50.856;15.716;2023-02-26T14:10:46;1.40;99.90
20147;DHT22;10234;50.856;15.716;2023-02-26T14:13:22;1.40;99.90
20147;DHT22;10234;50.856;15.716;2023-02-26T14:15:52;1.40;99.90
20147;DHT22;10234;50.856;15.716;2023-02-26T14:18:30;1.30;99.90
20147;DHT22;10234;50.856;15.716;2023-02-26T14:21:35;1.10;99.90
20147;DHT22;10234;50.856;15.716;2023-02-26T14:24:08;1.20;99.90
20147;DHT22;10234;50.856;15.716;2023-02-26T14:29:13;1.00;99.90
20147;DHT22;10234;50.856;15.716;2023-02-26T14:32:11;0.90;99.90
20147;DHT22;10234;50.856;15.716;2023-02-26T14:34:46;0.90;99.90
20147;DHT22;10234;50.856;15.716;2023-02-26T14:37:16;0.90;99.90
20147;DHT22;10234;50.856;15.716;2023-02-26T14:39:46;0.80;99.90
20147;DHT22;10234;50.856;15.716;2023-02-26T14:42:18;0.70;99.90
20147;DHT22;10234;50.856;15.716;2023-02-26T14:44:49;0.80;99.90
20147;DHT22;10234;50.856;15.716;2023-02-26T14:49:47;0.40;99.90
20147;DHT22;10234;50.856;15.716;2023-02-26T14:52:40;0.00;99.90
20147;DHT22;10234;50.856;15.716;2023-02-26T14:58:07;-0.10;99.90
20147;DHT22;10234;50.856;15.716;2023-02-26T15:00:46;0.10;99.90
20147;DHT22;10234;50.856;15.716;2023-02-26T15:03:32;0.10;99.90
20147;DHT22;10234;50.856;15.716;2023-02-26T15:06:21;0.10;99.90
20147;DHT22;10234;50.856;15.716;2023-02-26T15:09:02;0.00;99.90
20147;DHT22;10234;50.856;15.716;2023-02-26T15:11:42;0.00;99.90
20147;DHT22;10234;50.856;15.716;2023-02-26T15:14:44;-0.10;99.90
20147;DHT22;10234;50.856;15.716;2023-02-26T15:17:23;-0.20;99.90
20147;DHT22;10234;50.856;15.716;2023-02-26T15:20:05;-0.20;99.90
20147;DHT22;10234;50.856;15.716;2023-02-26T15:22:44;-0.30;99.90
20147;DHT22;10234;50.856;15.716;2023-02-26T15:25:18;-0.30;99.90
20147;DHT22;10234;50.856;15.716;2023-02-26T15:30:16;-0.30;99.90
20147;DHT22;10234;50.856;15.716;2023-02-26T15:35:15;-0.50;99.90
20147;DHT22;10234;50.856;15.716;2023-02-26T15:40:13;-0.70;99.90
20147;DHT22;10234;50.856;15.716;2023-02-26T15:42:41;-0.80;99.90
20147;DHT22;10234;50.856;15.716;2023-02-26T15:45:12;-0.90;99.90
20147;DHT22;10234;50.856;15.716;2023-02-26T15:50:13;-1.10;99.90
20147;DHT22;10234;50.856;15.716;2023-02-26T15:55:14;-1.10;99.90
20147;DHT22;10234;50.856;15.716;2023-02-26T15:57:42;-1.10;99.90
20147;DHT22;10234;50.856;15.716;2023-02-26T16:00:15;-2.00;99.90
20147;DHT22;10234;50.856;15.716;2023-02-26T16:02:43;-1.10;99.90
20147;DHT22;10234;50.856;15.716;2023-02-26T16:05:11;-1.20;99.90
20147;DHT22;10234;50.856;15.716;2023-02-26T16:07:39;-1.30;99.90
20147;DHT22;10234;50.856;15.716;2023-02-26T16:10:16;-1.70;99.90
20147;DHT22;10234;50.856;15.716;2023-02-26T16:12:45;-1.80;99.90
20147;DHT22;10234;50.856;15.716;2023-02-26T16:15:16;-1.50;99.90
20147;DHT22;10234;50.856;15.716;2023-02-26T16:17:47;-1.50;99.90
20147;DHT22;10234;50.856;15.716;2023-02-26T16:20:19;-1.60;99.90
20147;DHT22;10234;50.856;15.716;2023-02-26T16:22:48;-1.50;99.90
20147;DHT22;10234;50.856;15.716;2023-02-26T16:25:19;-1.40;99.90
20147;DHT22;10234;50.856;15.716;2023-02-26T16:27:50;-1.40;99.90
20147;DHT22;10234;50.856;15.716;2023-02-26T16:30:24;-1.30;99.90
20147;DHT22;10234;50.856;15.716;2023-02-26T16:32:53;-2.70;99.90
20147;DHT22;10234;50.856;15.716;2023-02-26T16:35:22;-1.30;99.90
20147;DHT22;10234;50.856;15.716;2023-02-26T16:37:53;-1.20;99.90
20147;DHT22;10234;50.856;15.716;2023-02-26T16:40:24;-1.30;99.90
20147;DHT22;10234;50.856;15.716;2023-02-26T16:42:54;-1.30;99.90
20147;DHT22;10234;50.856;15.716;2023-02-26T16:45:43;-1.40;99.90
20147;DHT22;10234;50.856;15.716;2023-02-26T16:48:16;-0.50;99.90
20147;DHT22;10234;50.856;15.716;2023-02-26T16:50:50;-2.10;99.90
20147;DHT22;10234;50.856;15.716;2023-02-26T16:55:50;-1.20;99.90
20147;DHT22;10234;50.856;15.716;2023-02-26T16:58:18;-2.20;99.90
20147;DHT22;10234;50.856;15.716;2023-02-26T17:00:51;-2.20;99.90
20147;DHT22;10234;50.856;15.716;2023-02-26T17:03:23;-2.20;99.90
20147;DHT22;10234;50.856;15.716;2023-02-26T17:05:54;-2.30;99.90
20147;DHT22;10234;50.856;15.716;2023-02-26T17:08:26;-2.20;99.90
20147;DHT22;10234;50.856;15.716;2023-02-26T17:10:54;-2.20;99.90
20147;DHT22;10234;50.856;15.716;2023-02-26T17:13:27;-2.10;99.90
20147;DHT22;10234;50.856;15.716;2023-02-26T17:15:58;-2.10;99.90
20147;DHT22;10234;50.856;15.716;2023-02-26T17:20:54;-2.20;99.90
20147;DHT22;10234;50.856;15.716;2023-02-26T17:23:22;-2.00;99.90
20147;DHT22;10234;50.856;15.716;2023-02-26T17:25:52;-2.00;99.90
20147;DHT22;10234;50.856;15.716;2023-02-26T17:28:22;-2.00;99.90
20147;DHT22;10234;50.856;15.716;2023-02-26T17:30:52;-2.00;99.90
20147;DHT22;10234;50.856;15.716;2023-02-26T17:33:20;-1.80;99.90
20147;DHT22;10234;50.856;15.716;2023-02-26T17:35:47;-2.20;99.90
20147;DHT22;10234;50.856;15.716;2023-02-26T17:40:45;-2.00;99.90
20147;DHT22;10234;50.856;15.716;2023-02-26T17:48:09;-2.00;99.90
20147;DHT22;10234;50.856;15.716;2023-02-26T17:50:41;-1.90;99.90
20147;DHT22;10234;50.856;15.716;2023-02-26T17:55:40;-1.80;99.90
20147;DHT22;10234;50.856;15.716;2023-02-26T18:05:33;-1.80;99.90
20147;DHT22;10234;50.856;15.716;2023-02-26T18:08:04;-2.60;99.90
20147;DHT22;10234;50.856;15.716;2023-02-26T18:10:31;-1.80;99.90
20147;DHT22;10234;50.856;15.716;2023-02-26T18:12:59;-1.80;99.90
20147;DHT22;10234;50.856;15.716;2023-02-26T18:20:23;-1.70;99.90
20147;DHT22;10234;50.856;15.716;2023-02-26T18:27:50;-1.70;99.90
20147;DHT22;10234;50.856;15.716;2023-02-26T18:30:23;-1.80;99.90
20147;DHT22;10234;50.856;15.716;2023-02-26T18:35:17;-1.60;99.90
20147;DHT22;10234;50.856;15.716;2023-02-26T18:37:44;-1.70;99.90
20147;DHT22;10234;50.856;15.716;2023-02-26T18:40:13;-1.60;99.90
20147;DHT22;10234;50.856;15.716;2023-02-26T18:42:41;-1.60;99.90
20147;DHT22;10234;50.856;15.716;2023-02-26T18:45:09;-1.60;99.90
20147;DHT22;10234;50.856;15.716;2023-02-26T18:47:38;-1.70;99.90
20147;DHT22;10234;50.856;15.716;2023-02-26T18:50:06;-1.70;99.90
20147;DHT22;10234;50.856;15.716;2023-02-26T18:55:01;-1.80;99.90
20147;DHT22;10234;50.856;15.716;2023-02-26T18:57:28;-1.90;99.90
20147;DHT22;10234;50.856;15.716;2023-02-26T18:59:55;-1.90;99.90
20147;DHT22;10234;50.856;15.716;2023-02-26T19:04:51;-1.90;99.90
20147;DHT22;10234;50.856;15.716;2023-02-26T19:12:13;-1.90;99.90
20147;DHT22;10234;50.856;15.716;2023-02-26T19:14:44;-1.10;99.90
20147;DHT22;10234;50.856;15.716;2023-02-26T19:17:10;-1.90;99.90
20147;DHT22;10234;50.856;15.716;2023-02-26T19:22:08;-1.90;99.90
20147;DHT22;10234;50.856;15.716;2023-02-26T19:24:35;-2.00;99.90
20147;DHT22;10234;50.856;15.716;2023-02-26T19:27:02;-2.00;99.90
20147;DHT22;10234;50.856;15.716;2023-02-26T19:34:25;-2.10;99.90
20147;DHT22;10234;50.856;15.716;2023-02-26T19:39:22;-2.40;99.90
20147;DHT22;10234;50.856;15.716;2023-02-26T19:41:50;-2.20;99.90
20147;DHT22;10234;50.856;15.716;2023-02-26T19:44:18;-2.30;99.90
20147;DHT22;10234;50.856;15.716;2023-02-26T19:46:45;-2.20;99.90
20147;DHT22;10234;50.856;15.716;2023-02-26T19:49:12;-1.60;99.90
20147;DHT22;10234;50.856;15.716;2023-02-26T19:56:35;-2.20;99.90
20147;DHT22;10234;50.856;15.716;2023-02-26T20:01:29;-2.00;99.90
20147;DHT22;10234;50.856;15.716;2023-02-26T20:06:23;-2.20;99.90
20147;DHT22;10234;50.856;15.716;2023-02-26T20:11:18;-2.20;99.90
20147;DHT22;10234;50.856;15.716;2023-02-26T20:13:46;-2.20;99.90
20147;DHT22;10234;50.856;15.716;2023-02-26T20:16:13;-2.20;99.90
20147;DHT22;10234;50.856;15.716;2023-02-26T20:18:40;-2.10;99.90
20147;DHT22;10234;50.856;15.716;2023-02-26T20:21:08;-2.20;99.90